Juti, Brazil
Current Conditions -  °F | °C
As of 12:15 PM on Friday 24 Oct 2014 (Local Time) from SBCA Reporting Station
Scattered Clouds Scattered Clouds  
Wind Chill: 86°   Ceiling: Unl
Heat Index: 86°   Visibility: 6mi
Dew Point: 59°   Wind: 23mph
Humidity: 40%   Direction: 30°NNE
Pressure: 30.03"   Gusts: NA
Location:  22.86°S, 54.6°W
Report Text: SBCA 241515Z 03020KT 9999 SCT040 30/15 Q1017
Loading
Personal Weather Stations






























Interactive Weather Map
Tropical Storm Tracking
New forecast layout! Learn more

10-Day Weather Forecast

Advertisements
Track Severe Weather on mobile